createdAt,value
2023-01-23T00:00:03.713Z,20.7
2023-01-23T00:05:11.737Z,20.6
2023-01-23T00:10:34.672Z,20.6
2023-01-23T00:15:58.414Z,20.6
2023-01-23T00:21:20.859Z,20.6
2023-01-23T00:26:46.731Z,20.6
2023-01-23T00:32:10.824Z,20.6
2023-01-23T00:37:33.596Z,20.6
2023-01-23T00:42:40.645Z,20.6
2023-01-23T00:48:10.039Z,20.6
2023-01-23T00:53:16.955Z,20.6
2023-01-23T00:58:39.529Z,20.6
2023-01-23T01:04:04.361Z,20.6
2023-01-23T01:08:40.880Z,20.6
2023-01-23T01:14:04.354Z,20.6
2023-01-23T01:19:27.100Z,20.6
2023-01-23T01:24:49.567Z,20.6
2023-01-23T01:30:12.927Z,20.6
2023-01-23T01:35:37.059Z,20.6
2023-01-23T01:40:59.470Z,20.6
2023-01-23T01:46:22.726Z,20.6
2023-01-23T01:51:46.555Z,20.5
2023-01-23T01:56:53.045Z,20.5
2023-01-23T02:01:44.845Z,20.5
2023-01-23T02:07:08.439Z,20.5
2023-01-23T02:12:15.661Z,20.5
2023-01-23T02:17:38.795Z,20.6
2023-01-23T02:22:49.277Z,20.7
2023-01-23T02:28:11.867Z,20.8
2023-01-23T02:33:35.667Z,20.9
2023-01-23T02:38:59.085Z,20.9
2023-01-23T02:44:22.528Z,21
2023-01-23T02:49:30.450Z,21.1
2023-01-23T02:54:53.954Z,21.2
2023-01-23T03:00:16.996Z,21.3
2023-01-23T03:05:40.009Z,21.4
2023-01-23T03:11:03.405Z,21.6
2023-01-23T03:16:10.134Z,21.6
2023-01-23T03:21:31.576Z,21.7
2023-01-23T03:26:39.640Z,21.7
2023-01-23T03:32:03.118Z,21.8
2023-01-23T03:37:25.843Z,21.8
2023-01-23T03:42:33.864Z,21.9
2023-01-23T03:47:41.227Z,21.9
2023-01-23T03:52:48.979Z,22
2023-01-23T03:57:40.420Z,22
2023-01-23T04:02:33.259Z,22.1
2023-01-23T04:07:40.616Z,22.1
2023-01-23T04:13:10.848Z,22.1
2023-01-23T04:18:02.634Z,22.1
2023-01-23T04:23:24.901Z,22.1
2023-01-23T04:28:48.029Z,22.2
2023-01-23T04:34:12.074Z,22.2
2023-01-23T04:39:35.247Z,22.2
2023-01-23T04:44:59.838Z,22.3
2023-01-23T04:50:23.121Z,22.3
2023-01-23T04:55:30.008Z,22.3
2023-01-23T05:00:38.325Z,22.3
2023-01-23T05:06:02.104Z,22.3
2023-01-23T05:11:27.721Z,22.3
2023-01-23T05:16:35.454Z,22.3
2023-01-23T05:21:43.661Z,22.3
2023-01-23T05:26:50.967Z,22.3
2023-01-23T05:32:14.300Z,22.4
2023-01-23T05:37:25.056Z,22.4
2023-01-23T05:42:49.259Z,22.4
2023-01-23T05:47:56.918Z,22.4
2023-01-23T05:53:05.378Z,22.4
2023-01-23T05:58:30.902Z,22.4
2023-01-23T06:03:38.579Z,22.4
2023-01-23T06:08:31.032Z,22.4
2023-01-23T06:13:38.521Z,22.4
2023-01-23T06:19:04.425Z,22.4
2023-01-23T06:24:13.026Z,22.4
2023-01-23T06:29:35.950Z,22.4
2023-01-23T06:35:02.857Z,22.4
2023-01-23T06:40:11.461Z,22.4
2023-01-23T06:45:36.939Z,22.4
2023-01-23T06:51:00.471Z,22.4
2023-01-23T06:56:24.385Z,22.4
2023-01-23T07:01:47.677Z,22.3
2023-01-23T07:07:10.805Z,22.3
2023-01-23T07:12:34.080Z,22.3
2023-01-23T07:17:59.673Z,22.3
2023-01-23T07:23:22.070Z,22.3
2023-01-23T07:28:30.279Z,22.3
2023-01-23T07:33:55.763Z,22.3
2023-01-23T07:39:18.397Z,22.3
2023-01-23T07:44:41.704Z,22.3
2023-01-23T07:50:05.198Z,22.3
2023-01-23T07:55:31.476Z,22.3
2023-01-23T08:01:00.247Z,22.3
2023-01-23T08:06:07.640Z,22.3
2023-01-23T08:11:40.074Z,22.3
2023-01-23T08:17:03.664Z,22.3
2023-01-23T08:22:11.168Z,22.3
2023-01-23T08:27:18.020Z,22.3
2023-01-23T08:32:42.459Z,22.3
2023-01-23T08:37:50.232Z,22.3
2023-01-23T08:43:14.203Z,22.3
2023-01-23T08:48:37.842Z,22.3
2023-01-23T08:54:01.900Z,22.3
2023-01-23T08:59:26.790Z,22.3
2023-01-23T09:04:51.037Z,22.3
2023-01-23T09:09:59.422Z,22.3
2023-01-23T09:15:06.876Z,22.3
2023-01-23T09:20:31.215Z,22.3
2023-01-23T09:25:54.792Z,22.3
2023-01-23T09:31:18.623Z,22.3
2023-01-23T09:36:58.352Z,22.3
2023-01-23T09:42:08.182Z,22.3
2023-01-23T09:47:31.871Z,22.3
2023-01-23T09:52:55.738Z,22.3
2023-01-23T09:58:03.492Z,22.3
2023-01-23T10:03:26.926Z,22.3
2023-01-23T10:08:51.318Z,22.3
2023-01-23T10:14:17.502Z,22.3
2023-01-23T10:20:02.329Z,22.3
2023-01-23T10:25:35.571Z,22.2
2023-01-23T10:30:58.719Z,22.3
2023-01-23T10:36:24.717Z,22.2
2023-01-23T10:42:03.134Z,22.2
2023-01-23T10:47:29.861Z,22.2
2023-01-23T10:53:07.007Z,22.2
2023-01-23T10:58:51.057Z,22.2
2023-01-23T11:04:06.203Z,22.2
2023-01-23T11:09:36.938Z,22.2
2023-01-23T11:15:02.384Z,22.3
2023-01-23T11:20:26.009Z,22.3
2023-01-23T11:26:03.025Z,22.2
2023-01-23T11:31:29.693Z,22.2
2023-01-23T11:36:53.672Z,22.2
2023-01-23T11:42:23.808Z,22.2
2023-01-23T11:47:57.107Z,22.2
2023-01-23T11:53:14.032Z,22.2
2023-01-23T11:58:35.186Z,22.2
2023-01-23T12:04:23.757Z,22.2
2023-01-23T12:10:02.468Z,22.1
2023-01-23T12:15:25.769Z,22.1
2023-01-23T12:20:34.539Z,22.1
2023-01-23T12:25:59.426Z,22.1
2023-01-23T12:31:22.541Z,22.1
2023-01-23T12:37:05.658Z,22.1
2023-01-23T12:42:38.949Z,22
2023-01-23T12:48:01.862Z,22
2023-01-23T12:53:26.743Z,21.9
2023-01-23T12:59:15.330Z,22
2023-01-23T13:04:52.726Z,21.9
2023-01-23T13:10:36.804Z,21.9
2023-01-23T13:16:30.957Z,21.9
2023-01-23T13:21:54.517Z,21.8
2023-01-23T13:27:24.178Z,21.8
2023-01-23T13:33:02.007Z,21.8
2023-01-23T13:38:33.320Z,21.8
2023-01-23T13:44:07.718Z,21.8
2023-01-23T13:49:24.565Z,21.7
2023-01-23T13:54:48.106Z,21.7
2023-01-23T14:00:11.927Z,21.7
2023-01-23T14:05:34.355Z,21.7
2023-01-23T14:10:57.721Z,21.7
2023-01-23T14:16:21.924Z,21.7
2023-01-23T14:21:58.054Z,21.6
2023-01-23T14:27:28.872Z,21.7
2023-01-23T14:33:03.297Z,21.7
2023-01-23T14:38:20.020Z,21.6
2023-01-23T14:44:25.573Z,21.6
2023-01-23T14:50:06.237Z,21.6
2023-01-23T14:55:49.439Z,21.6
2023-01-23T15:01:13.072Z,21.6
2023-01-23T15:06:48.178Z,21.6
2023-01-23T15:12:11.638Z,21.6
2023-01-23T15:17:35.083Z,21.6
2023-01-23T15:22:59.396Z,21.6
2023-01-23T15:28:35.110Z,21.5
2023-01-23T15:33:59.648Z,21.5
2023-01-23T15:39:24.478Z,21.5
2023-01-23T15:45:01.901Z,21.5
2023-01-23T15:50:33.274Z,21.5
2023-01-23T15:55:57.557Z,21.5
2023-01-23T16:01:33.863Z,21.5
2023-01-23T16:07:13.880Z,21.5
2023-01-23T16:12:45.921Z,21.4
2023-01-23T16:18:06.273Z,21.4
2023-01-23T16:24:03.238Z,21.4
2023-01-23T16:29:45.500Z,21.4
2023-01-23T16:35:09.351Z,21.4
2023-01-23T16:40:32.648Z,21.4
2023-01-23T16:45:57.099Z,21.3
2023-01-23T16:51:37.926Z,21.4
2023-01-23T16:57:13.824Z,21.3
2023-01-23T17:02:52.774Z,21.3
2023-01-23T17:08:16.526Z,21.3
2023-01-23T17:13:38.750Z,21.3
2023-01-23T17:18:30.209Z,21.3
2023-01-23T17:23:38.093Z,21.3
2023-01-23T17:29:24.271Z,21.2
2023-01-23T17:34:54.975Z,21.2
2023-01-23T17:40:18.272Z,21.2
2023-01-23T17:45:43.185Z,21.2
2023-01-23T17:56:17.499Z,21.3
2023-01-23T18:01:42.998Z,21.5
2023-01-23T18:07:08.594Z,21.8
2023-01-23T18:12:28.340Z,22
2023-01-23T18:17:59.953Z,22.2
2023-01-23T18:23:14.235Z,22.4
2023-01-23T18:28:09.818Z,22.6
2023-01-23T18:33:08.929Z,22.7
2023-01-23T18:38:27.324Z,22.9
2023-01-23T18:43:45.448Z,23.1
2023-01-23T18:49:49.338Z,23.3
2023-01-23T18:55:27.284Z,23.5
2023-01-23T19:01:17.743Z,23.8
2023-01-23T19:06:59.072Z,23.9
2023-01-23T19:12:47.362Z,23.9
2023-01-23T19:18:03.868Z,24.1
2023-01-23T19:24:02.191Z,24.1
2023-01-23T19:29:54.740Z,24.2
2023-01-23T19:35:32.471Z,24.2
2023-01-23T19:41:08.238Z,24.3
2023-01-23T19:47:10.180Z,24.2
2023-01-23T19:52:48.308Z,24.1
2023-01-23T19:57:55.597Z,24.1
2023-01-23T20:03:16.880Z,24
2023-01-23T20:08:15.107Z,24.1
2023-01-23T20:13:44.603Z,24.1
2023-01-23T20:19:13.836Z,24.1
2023-01-23T20:24:45.240Z,24.1
2023-01-23T20:30:13.946Z,24
2023-01-23T20:35:29.509Z,23.9
2023-01-23T20:40:54.929Z,23.9
2023-01-23T20:46:20.557Z,23.8
2023-01-23T20:51:46.038Z,23.7
2023-01-23T20:57:13.734Z,23.6
2023-01-23T21:02:39.485Z,23.6
2023-01-23T21:07:34.600Z,23.4
2023-01-23T21:12:27.552Z,23.4
2023-01-23T21:17:36.342Z,23.4
2023-01-23T21:23:01.626Z,23.3
2023-01-23T21:28:24.804Z,23.3
2023-01-23T21:33:47.806Z,23.1
2023-01-23T21:44:19.276Z,23.1
2023-01-23T21:49:41.392Z,22.9
2023-01-23T21:54:34.691Z,22.8
2023-01-23T21:59:57.810Z,22.7
2023-01-23T22:05:20.925Z,22.6
2023-01-23T22:10:45.467Z,22.5
2023-01-23T22:16:11.073Z,22.4
2023-01-23T22:21:52.771Z,22.4
2023-01-23T22:27:17.306Z,22.3
2023-01-23T22:32:41.849Z,22.3
2023-01-23T22:38:13.716Z,22.2
2023-01-23T22:43:37.989Z,22.2
2023-01-23T22:49:01.839Z,22.1
2023-01-23T22:54:27.072Z,22.1
2023-01-23T22:59:35.542Z,22
2023-01-23T23:04:59.608Z,21.9
2023-01-23T23:09:51.080Z,21.9
2023-01-23T23:14:59.056Z,21.9
2023-01-23T23:20:07.161Z,21.8
2023-01-23T23:25:14.120Z,21.8
2023-01-23T23:30:07.023Z,21.8
2023-01-23T23:35:30.735Z,21.7
2023-01-23T23:40:53.258Z,21.7
2023-01-23T23:46:17.180Z,21.6
2023-01-23T23:51:40.408Z,21.6
2023-01-23T23:56:47.374Z,21.6
